Terminal Aerodrome Forecast
Issued by NWS

Home | Current Version | Previous Version | Graphics & Text | Print | Product List | Glossary On
Versions: 1 2 3 4 5 6 7 8 9 10 11 12 13 14 15 16 17 18 19
000
FTUS41 KCLE 190500
TAFFDY
TAF
KFDY 190522Z 1906/2006 22011KT P6SM BKN040
     FM191500 19012G18KT 3SM -SN SCT008 OVC012
     FM192000 22015G25KT 2SM -SN OVC012
     FM200000 25012KT P6SM OVC035=

USA.gov is the U.S. government's official web portal to all federal, state and local government web resources and services.